createdAt,value
2023-03-03T00:02:26.997Z,16.83
2023-03-03T00:06:35.597Z,16.40
2023-03-03T00:10:45.139Z,17.03
2023-03-03T00:14:53.946Z,15.00
2023-03-03T00:19:02.591Z,14.97
2023-03-03T00:23:24.093Z,16.10
2023-03-03T00:27:37.298Z,15.50
2023-03-03T00:31:45.988Z,15.07
2023-03-03T00:35:54.620Z,14.80
2023-03-03T00:40:23.865Z,13.27
2023-03-03T00:44:50.433Z,16.00
2023-03-03T00:48:59.252Z,15.53
2023-03-03T00:53:16.807Z,13.20
2023-03-03T00:57:25.436Z,13.47
2023-03-03T01:01:34.025Z,14.13
2023-03-03T01:05:43.179Z,12.50
2023-03-03T01:09:51.744Z,13.27
2023-03-03T01:14:00.289Z,12.47
2023-03-03T01:18:10.670Z,11.60
2023-03-03T01:22:19.227Z,14.17
2023-03-03T01:26:28.106Z,13.67
2023-03-03T01:30:37.197Z,14.13
2023-03-03T01:34:45.754Z,12.60
2023-03-03T01:38:54.431Z,12.70
2023-03-03T01:43:03.163Z,14.60
2023-03-03T01:47:20.381Z,14.30
2023-03-03T01:51:38.213Z,11.60
2023-03-03T01:55:48.684Z,12.30
2023-03-03T02:00:00.581Z,13.03
2023-03-03T02:04:10.287Z,15.90
2023-03-03T02:08:22.280Z,14.37
2023-03-03T02:12:38.262Z,12.53
2023-03-03T02:16:46.917Z,13.77
2023-03-03T02:21:01.500Z,10.83
2023-03-03T02:25:13.143Z,11.37
2023-03-03T02:29:21.808Z,11.00
2023-03-03T02:33:30.746Z,10.13
2023-03-03T02:37:39.490Z,13.67
2023-03-03T02:45:57.869Z,15.50
2023-03-03T02:50:07.133Z,13.37
2023-03-03T02:54:17.030Z,12.73
2023-03-03T02:58:25.608Z,10.93
2023-03-03T03:02:34.171Z,12.47
2023-03-03T03:06:43.379Z,11.27
2023-03-03T03:10:52.616Z,10.03
2023-03-03T03:15:01.220Z,11.63
2023-03-03T03:19:09.871Z,9.90
2023-03-03T03:23:37.704Z,9.80
2023-03-03T03:27:46.383Z,9.50
2023-03-03T03:31:55.078Z,12.60
2023-03-03T03:36:06.167Z,12.87
2023-03-03T03:40:14.826Z,14.50
2023-03-03T03:44:25.304Z,11.30
2023-03-03T03:48:34.539Z,12.27
2023-03-03T03:52:43.800Z,11.93
2023-03-03T03:56:53.994Z,11.80
2023-03-03T04:01:08.315Z,11.07
2023-03-03T04:05:17.048Z,14.50
2023-03-03T04:09:25.679Z,13.17
2023-03-03T04:13:35.558Z,13.10
2023-03-03T04:17:44.582Z,15.03
2023-03-03T04:21:53.363Z,13.50
2023-03-03T04:26:01.947Z,13.13
2023-03-03T04:30:31.876Z,12.80
2023-03-03T04:34:40.518Z,12.13
2023-03-03T04:38:49.235Z,15.00
2023-03-03T04:42:57.769Z,14.30
2023-03-03T04:47:06.433Z,12.23
2023-03-03T04:51:16.761Z,14.37
2023-03-03T04:55:25.402Z,13.77
2023-03-03T04:59:34.004Z,14.30
2023-03-03T05:03:42.833Z,14.13
2023-03-03T05:07:51.460Z,15.70
2023-03-03T05:12:00.127Z,14.30
2023-03-03T05:16:09.142Z,17.20
2023-03-03T05:20:18.281Z,14.63
2023-03-03T05:24:27.096Z,15.00
2023-03-03T05:28:35.726Z,14.63
2023-03-03T05:32:44.356Z,13.53
2023-03-03T05:36:53.084Z,12.67
2023-03-03T05:41:01.719Z,11.83
2023-03-03T05:45:11.249Z,12.00
2023-03-03T05:49:20.310Z,12.20
2023-03-03T05:53:29.644Z,12.97
2023-03-03T05:57:38.486Z,15.23
2023-03-03T06:01:47.139Z,12.33
2023-03-03T06:05:55.753Z,12.47
2023-03-03T06:10:05.111Z,13.13
2023-03-03T06:14:13.707Z,11.23
2023-03-03T06:18:25.180Z,11.20
2023-03-03T06:22:33.947Z,12.57
2023-03-03T06:26:42.787Z,12.10
2023-03-03T06:30:55.890Z,12.30
2023-03-03T06:35:04.567Z,11.33
2023-03-03T06:39:13.170Z,12.50
2023-03-03T06:43:41.151Z,13.10
2023-03-03T06:48:09.028Z,15.70
2023-03-03T06:52:20.651Z,12.23
2023-03-03T06:56:29.458Z,10.43
2023-03-03T07:00:37.998Z,10.35
2023-03-03T07:04:48.483Z,12.47
2023-03-03T07:08:58.048Z,11.13
2023-03-03T07:13:26.512Z,9.90
2023-03-03T07:17:35.774Z,12.30
2023-03-03T07:21:44.499Z,11.50
2023-03-03T07:25:54.465Z,12.20
2023-03-03T07:30:24.205Z,9.90
2023-03-03T07:34:35.877Z,12.60
2023-03-03T07:38:47.576Z,10.77
2023-03-03T07:42:56.048Z,12.13
2023-03-03T07:47:16.823Z,11.63
2023-03-03T07:51:31.650Z,13.30
2023-03-03T07:55:41.642Z,10.90
2023-03-03T07:59:56.693Z,12.20
2023-03-03T08:04:26.265Z,10.43
2023-03-03T08:08:37.932Z,10.23
2023-03-03T08:12:49.187Z,10.37
2023-03-03T08:17:00.631Z,10.80
2023-03-03T08:21:28.577Z,11.40
2023-03-03T08:25:37.155Z,9.33
2023-03-03T08:29:47.581Z,11.63
2023-03-03T08:33:55.982Z,10.80
2023-03-03T08:38:05.781Z,11.10
2023-03-03T08:42:16.227Z,10.13
2023-03-03T08:46:24.592Z,9.90
2023-03-03T08:50:33.219Z,10.20
2023-03-03T08:54:41.828Z,10.00
2023-03-03T08:59:10.061Z,9.67
2023-03-03T09:03:18.615Z,8.63
2023-03-03T09:07:47.965Z,8.90
2023-03-03T09:11:59.454Z,11.43
2023-03-03T09:16:28.352Z,12.37
2023-03-03T09:20:48.805Z,10.17
2023-03-03T09:25:00.062Z,9.20
2023-03-03T09:29:17.448Z,10.50
2023-03-03T09:33:43.789Z,10.40
2023-03-03T09:37:54.101Z,10.60
2023-03-03T09:42:24.645Z,9.33
2023-03-03T09:46:54.406Z,9.50
2023-03-03T09:51:12.811Z,8.87
2023-03-03T09:55:39.534Z,9.10
2023-03-03T10:00:12.370Z,7.43
2023-03-03T10:04:26.786Z,11.30
2023-03-03T10:08:42.491Z,10.07
2023-03-03T10:13:12.559Z,9.63
2023-03-03T10:17:27.463Z,8.87
2023-03-03T10:21:44.664Z,10.50
2023-03-03T10:25:56.293Z,9.60
2023-03-03T10:30:38.206Z,8.67
2023-03-03T10:34:53.456Z,9.40
2023-03-03T10:39:24.518Z,10.03
2023-03-03T10:43:51.369Z,8.97
2023-03-03T10:48:30.312Z,7.93
2023-03-03T10:52:42.025Z,7.20
2023-03-03T10:57:05.587Z,7.70
2023-03-03T11:01:17.276Z,9.90
2023-03-03T11:05:37.962Z,7.13
2023-03-03T11:10:18.310Z,7.10
2023-03-03T11:14:41.646Z,7.23
2023-03-03T11:19:15.792Z,7.57
2023-03-03T11:23:45.597Z,7.80
2023-03-03T11:28:26.231Z,8.30
2023-03-03T11:32:41.289Z,6.90
2023-03-03T11:36:58.692Z,7.23
2023-03-03T11:41:34.147Z,8.03
2023-03-03T11:45:52.080Z,8.13
2023-03-03T11:50:06.873Z,7.50
2023-03-03T11:54:27.376Z,6.90
2023-03-03T11:58:39.015Z,7.10
2023-03-03T12:03:18.219Z,7.00
2023-03-03T12:07:53.404Z,7.50
2023-03-03T12:12:21.591Z,8.43
2023-03-03T12:16:40.633Z,7.00
2023-03-03T12:21:18.193Z,7.57
2023-03-03T12:25:54.422Z,9.63
2023-03-03T12:30:23.015Z,7.43
2023-03-03T12:34:46.699Z,9.60
2023-03-03T12:39:04.238Z,8.47
2023-03-03T12:43:24.901Z,7.47
2023-03-03T12:47:44.988Z,7.27
2023-03-03T12:52:02.489Z,10.00
2023-03-03T12:56:16.976Z,9.90
2023-03-03T13:00:40.630Z,8.47
2023-03-03T13:04:58.009Z,7.73
2023-03-03T13:09:24.623Z,10.63
2023-03-03T13:13:51.474Z,8.97
2023-03-03T13:18:27.658Z,8.20
2023-03-03T13:22:39.410Z,8.80
2023-03-03T13:27:00.365Z,7.20
2023-03-03T13:31:12.412Z,9.70
2023-03-03T13:35:42.582Z,9.83
2023-03-03T13:40:00.196Z,8.70
2023-03-03T13:44:23.915Z,8.70
2023-03-03T13:48:56.111Z,9.00
2023-03-03T13:53:27.099Z,9.00
2023-03-03T13:57:56.885Z,8.83
2023-03-03T14:02:28.785Z,7.30
2023-03-03T14:06:39.025Z,7.13
2023-03-03T14:11:25.950Z,8.77
2023-03-03T14:15:43.339Z,8.47
2023-03-03T14:20:16.081Z,9.27
2023-03-03T14:24:26.568Z,9.47
2023-03-03T14:28:51.207Z,7.07
2023-03-03T14:33:02.958Z,8.60
2023-03-03T14:37:28.959Z,7.20
2023-03-03T14:50:12.380Z,8.57
2023-03-03T14:54:29.666Z,9.00
2023-03-03T14:58:43.200Z,9.70
2023-03-03T15:03:08.482Z,7.70
2023-03-03T15:07:35.599Z,11.07
2023-03-03T15:11:45.903Z,8.40
2023-03-03T15:16:03.343Z,8.30
2023-03-03T15:20:18.120Z,9.30
2023-03-03T15:24:42.108Z,9.00
2023-03-03T15:29:16.224Z,8.60
2023-03-03T15:33:44.557Z,10.20
2023-03-03T15:38:17.310Z,9.13
2023-03-03T15:42:35.926Z,9.23
2023-03-03T15:47:03.651Z,10.63
2023-03-03T15:51:24.461Z,10.40
2023-03-03T15:55:54.598Z,8.67
2023-03-03T16:00:26.832Z,11.87
2023-03-03T16:04:39.155Z,9.27
2023-03-03T16:08:58.998Z,10.10
2023-03-03T16:13:16.239Z,9.90
2023-03-03T16:17:34.799Z,10.20
2023-03-03T16:21:52.301Z,9.60
2023-03-03T16:26:10.255Z,11.80
2023-03-03T16:30:21.953Z,10.53
2023-03-03T16:34:39.492Z,10.83
2023-03-03T16:39:15.670Z,10.33
2023-03-03T16:43:30.135Z,10.43
2023-03-03T16:48:01.362Z,11.77
2023-03-03T16:52:15.143Z,11.83
2023-03-03T16:56:35.297Z,9.20
2023-03-03T17:00:52.901Z,10.97
2023-03-03T17:05:05.156Z,9.00
2023-03-03T17:09:32.230Z,11.50
2023-03-03T17:13:48.661Z,9.60
2023-03-03T17:18:06.401Z,10.63
2023-03-03T17:22:46.773Z,12.63
2023-03-03T17:27:19.099Z,9.67
2023-03-03T17:31:42.796Z,10.10
2023-03-03T17:35:54.746Z,9.73
2023-03-03T17:40:27.743Z,12.20
2023-03-03T17:45:00.716Z,11.47
2023-03-03T17:49:18.321Z,10.57
2023-03-03T17:54:03.490Z,11.60
2023-03-03T17:58:35.960Z,10.80
2023-03-03T18:03:10.362Z,12.03
2023-03-03T18:07:44.667Z,11.40
2023-03-03T18:11:59.806Z,10.38
2023-03-03T18:16:35.930Z,12.97
2023-03-03T18:21:11.141Z,12.10
2023-03-03T18:25:26.616Z,13.43
2023-03-03T18:29:35.251Z,13.87
2023-03-03T18:34:10.695Z,15.87
2023-03-03T18:38:25.380Z,13.20
2023-03-03T18:42:53.981Z,13.20
2023-03-03T18:47:02.620Z,12.00
2023-03-03T18:51:11.336Z,14.20
2023-03-03T18:55:23.451Z,11.77
2023-03-03T18:59:37.687Z,11.47
2023-03-03T19:03:49.420Z,9.60
2023-03-03T19:08:20.902Z,9.30
2023-03-03T19:12:53.109Z,8.37
2023-03-03T19:17:20.933Z,7.63
2023-03-03T19:21:37.749Z,9.10
2023-03-03T19:25:46.480Z,7.50
2023-03-03T19:29:58.182Z,8.00
2023-03-03T19:34:15.707Z,7.00
2023-03-03T19:38:39.500Z,8.27
2023-03-03T19:42:58.594Z,7.30
2023-03-03T19:47:10.224Z,6.60
2023-03-03T19:51:54.586Z,8.20
2023-03-03T19:56:22.833Z,11.17
2023-03-03T20:00:37.092Z,7.90
2023-03-03T20:05:18.698Z,10.83
2023-03-03T20:09:38.965Z,9.70
2023-03-03T20:14:17.741Z,6.47
2023-03-03T20:19:02.908Z,6.47
2023-03-03T20:23:44.305Z,5.03
2023-03-03T20:28:04.942Z,5.03
2023-03-03T20:32:26.228Z,4.03
2023-03-03T20:36:40.790Z,4.70
2023-03-03T20:40:55.432Z,4.40
2023-03-03T20:45:25.362Z,4.30
2023-03-03T20:50:00.166Z,5.30
2023-03-03T20:54:14.932Z,4.13
2023-03-03T20:58:39.025Z,4.40
2023-03-03T21:03:16.333Z,4.93
2023-03-03T21:07:27.142Z,5.10
2023-03-03T21:11:38.806Z,6.03
2023-03-03T21:15:55.626Z,5.30
2023-03-03T21:20:27.697Z,6.53
2023-03-03T21:24:55.754Z,5.00
2023-03-03T21:29:04.300Z,3.67
2023-03-03T21:33:15.297Z,4.07
2023-03-03T21:37:44.710Z,4.43
2023-03-03T21:42:05.216Z,3.77
2023-03-03T21:46:14.717Z,3.60
2023-03-03T21:50:23.933Z,3.73
2023-03-03T21:54:32.541Z,3.83
2023-03-03T21:58:44.549Z,3.20
2023-03-03T22:02:54.739Z,3.30
2023-03-03T22:07:03.341Z,3.90
2023-03-03T22:11:12.437Z,4.40
2023-03-03T22:15:22.088Z,4.00
2023-03-03T22:19:31.221Z,3.47
2023-03-03T22:23:39.797Z,3.80
2023-03-03T22:27:48.344Z,2.87
2023-03-03T22:31:56.971Z,4.00
2023-03-03T22:36:06.215Z,3.03
2023-03-03T22:40:15.037Z,4.10
2023-03-03T22:44:45.749Z,4.00
2023-03-03T22:48:53.286Z,3.80
2023-03-03T22:53:01.933Z,3.03
2023-03-03T22:57:10.485Z,3.60
2023-03-03T23:01:19.068Z,4.57
2023-03-03T23:05:27.652Z,3.93
2023-03-03T23:09:36.542Z,3.77
2023-03-03T23:13:45.104Z,4.20
2023-03-03T23:17:53.657Z,3.80
2023-03-03T23:22:02.188Z,3.27
2023-03-03T23:26:10.831Z,3.97
2023-03-03T23:30:20.844Z,3.50
2023-03-03T23:34:29.753Z,3.83
2023-03-03T23:38:38.315Z,3.95
2023-03-03T23:42:48.590Z,4.07
2023-03-03T23:46:57.192Z,3.57
2023-03-03T23:51:06.192Z,4.20
2023-03-03T23:55:14.716Z,3.33
2023-03-03T23:59:23.247Z,3.77
